EGNX

East Midlands Airport

Airport
ICAO code
EGNX
IATA Code
EMA
Summary
ICAO Region
EUR
ICAO Territory
Location

Castle Donington, Leicestershire, England

Serving
Nottingham
Elevation
306 ft
Coordinates
52° 49' 51" N , 1° 19' 54" W
KCC
Cfb
Metar
Observation
EGNX 171420Z 05013KT 9999 BKN014 17/14 Q1015
Station
East Midlands
Date/Time
2022-08-17 14:20:00
Wind direction
50°
Wind speed
13 kts
Lowest cloud amount
broken clouds
Temperature
17°C
Dew point
14°C
Humidity
82%
QNH
1015 hPa
Weather condition
n/a

Description

International airport serving the cities of Nottingham, Leicester, Derby and the East Midlands region of England generally.

Climatology

Temperate Marine climate/Oceanic climate (Köppen climate classification Cfb). Moderately cool summer and comparatively warm winter with a temperature range of only 14°C. Prevailing south-westerly winds from the Atlantic Ocean.

Runways

Designator Length Width Surface Rops
9/27 2893 46 ASP Yes/Yes

SKYbrary Partners:

Safety knowledge contributed by: